sensor_id;sensor_type;location;lat;lon;timestamp;P1;durP1;ratioP1;P2;durP2;ratioP2
47259;SDS011;32999;52.412;4.890;2023-04-15T00:00:12;6.22;;;3.05;;
47259;SDS011;32999;52.412;4.890;2023-04-15T00:05:16;5.85;;;2.85;;
47259;SDS011;32999;52.412;4.890;2023-04-15T00:10:18;7.22;;;3.22;;
47259;SDS011;32999;52.412;4.890;2023-04-15T00:15:19;7.57;;;3.08;;
47259;SDS011;32999;52.412;4.890;2023-04-15T00:20:23;4.85;;;2.83;;
47259;SDS011;32999;52.412;4.890;2023-04-15T00:25:25;7.32;;;3.67;;
47259;SDS011;32999;52.412;4.890;2023-04-15T00:30:27;8.55;;;3.25;;
47259;SDS011;32999;52.412;4.890;2023-04-15T00:35:30;10.73;;;3.42;;
47259;SDS011;32999;52.412;4.890;2023-04-15T00:40:32;8.00;;;3.42;;
47259;SDS011;32999;52.412;4.890;2023-04-15T00:45:34;8.63;;;3.78;;
47259;SDS011;32999;52.412;4.890;2023-04-15T00:50:37;7.45;;;3.83;;
47259;SDS011;32999;52.412;4.890;2023-04-15T00:55:39;5.88;;;3.92;;
47259;SDS011;32999;52.412;4.890;2023-04-15T01:00:41;5.53;;;3.30;;
47259;SDS011;32999;52.412;4.890;2023-04-15T01:05:44;6.07;;;3.30;;
47259;SDS011;32999;52.412;4.890;2023-04-15T01:10:46;8.13;;;3.97;;
47259;SDS011;32999;52.412;4.890;2023-04-15T01:15:49;11.73;;;3.63;;
47259;SDS011;32999;52.412;4.890;2023-04-15T01:20:52;7.78;;;3.70;;
47259;SDS011;32999;52.412;4.890;2023-04-15T01:25:55;6.43;;;3.75;;
47259;SDS011;32999;52.412;4.890;2023-04-15T01:31:05;5.70;;;3.33;;
47259;SDS011;32999;52.412;4.890;2023-04-15T01:36:08;6.40;;;3.70;;
47259;SDS011;32999;52.412;4.890;2023-04-15T01:41:12;7.40;;;3.63;;
47259;SDS011;32999;52.412;4.890;2023-04-15T01:46:14;10.32;;;4.13;;
47259;SDS011;32999;52.412;4.890;2023-04-15T01:51:17;9.55;;;3.72;;
47259;SDS011;32999;52.412;4.890;2023-04-15T01:56:23;7.90;;;3.65;;
47259;SDS011;32999;52.412;4.890;2023-04-15T02:01:24;6.55;;;4.20;;
47259;SDS011;32999;52.412;4.890;2023-04-15T02:06:35;11.73;;;4.32;;
47259;SDS011;32999;52.412;4.890;2023-04-15T02:17:24;9.52;;;4.38;;
47259;SDS011;32999;52.412;4.890;2023-04-15T02:29:18;6.80;;;3.78;;
47259;SDS011;32999;52.412;4.890;2023-04-15T03:11:00;10.82;;;4.63;;
47259;SDS011;32999;52.412;4.890;2023-04-15T03:16:11;5.93;;;3.70;;
47259;SDS011;32999;52.412;4.890;2023-04-15T03:51:06;7.10;;;3.83;;
47259;SDS011;32999;52.412;4.890;2023-04-15T03:56:34;6.68;;;4.05;;
47259;SDS011;32999;52.412;4.890;2023-04-15T04:02:17;8.20;;;3.78;;
47259;SDS011;32999;52.412;4.890;2023-04-15T04:13:35;6.20;;;4.22;;
47259;SDS011;32999;52.412;4.890;2023-04-15T04:18:42;7.72;;;4.03;;
47259;SDS011;32999;52.412;4.890;2023-04-15T04:23:51;8.38;;;4.30;;
47259;SDS011;32999;52.412;4.890;2023-04-15T04:28:54;9.38;;;4.18;;
47259;SDS011;32999;52.412;4.890;2023-04-15T04:34:37;8.75;;;4.30;;
47259;SDS011;32999;52.412;4.890;2023-04-15T04:39:42;12.77;;;5.03;;
47259;SDS011;32999;52.412;4.890;2023-04-15T04:44:54;7.88;;;4.85;;
47259;SDS011;32999;52.412;4.890;2023-04-15T04:50:15;8.88;;;5.22;;
47259;SDS011;32999;52.412;4.890;2023-04-15T06:07:28;9.50;;;5.50;;
47259;SDS011;32999;52.412;4.890;2023-04-15T06:19:12;10.85;;;5.60;;
47259;SDS011;32999;52.412;4.890;2023-04-15T06:24:15;12.30;;;5.70;;
47259;SDS011;32999;52.412;4.890;2023-04-15T06:29:17;13.20;;;6.82;;
47259;SDS011;32999;52.412;4.890;2023-04-15T06:34:19;7.97;;;5.68;;
47259;SDS011;32999;52.412;4.890;2023-04-15T06:39:22;9.50;;;4.60;;
47259;SDS011;32999;52.412;4.890;2023-04-15T06:44:24;7.82;;;5.28;;
47259;SDS011;32999;52.412;4.890;2023-04-15T06:49:25;7.45;;;5.38;;
47259;SDS011;32999;52.412;4.890;2023-04-15T06:54:29;8.15;;;5.38;;
47259;SDS011;32999;52.412;4.890;2023-04-15T06:59:30;9.98;;;5.75;;
47259;SDS011;32999;52.412;4.890;2023-04-15T07:04:32;7.63;;;4.80;;
47259;SDS011;32999;52.412;4.890;2023-04-15T07:09:35;8.15;;;4.90;;
47259;SDS011;32999;52.412;4.890;2023-04-15T07:14:37;7.13;;;4.70;;
47259;SDS011;32999;52.412;4.890;2023-04-15T07:19:39;7.72;;;4.88;;
47259;SDS011;32999;52.412;4.890;2023-04-15T07:24:42;5.85;;;3.83;;
47259;SDS011;32999;52.412;4.890;2023-04-15T07:29:44;9.02;;;4.70;;
47259;SDS011;32999;52.412;4.890;2023-04-15T07:34:46;5.07;;;3.83;;
47259;SDS011;32999;52.412;4.890;2023-04-15T07:39:49;6.03;;;3.20;;
47259;SDS011;32999;52.412;4.890;2023-04-15T07:44:51;4.50;;;2.80;;
47259;SDS011;32999;52.412;4.890;2023-04-15T07:49:53;5.72;;;3.83;;
47259;SDS011;32999;52.412;4.890;2023-04-15T07:54:57;5.00;;;2.95;;
47259;SDS011;32999;52.412;4.890;2023-04-15T07:59:59;3.85;;;2.92;;
47259;SDS011;32999;52.412;4.890;2023-04-15T08:05:01;3.60;;;2.25;;
47259;SDS011;32999;52.412;4.890;2023-04-15T08:10:05;4.93;;;2.83;;
47259;SDS011;32999;52.412;4.890;2023-04-15T08:15:08;5.57;;;2.85;;
47259;SDS011;32999;52.412;4.890;2023-04-15T08:20:12;5.10;;;3.27;;
47259;SDS011;32999;52.412;4.890;2023-04-15T08:25:15;4.25;;;3.00;;
47259;SDS011;32999;52.412;4.890;2023-04-15T08:30:17;3.65;;;2.58;;
47259;SDS011;32999;52.412;4.890;2023-04-15T08:35:18;4.38;;;2.55;;
47259;SDS011;32999;52.412;4.890;2023-04-15T08:40:21;7.65;;;3.25;;
47259;SDS011;32999;52.412;4.890;2023-04-15T08:45:34;5.15;;;3.05;;
47259;SDS011;32999;52.412;4.890;2023-04-15T08:50:38;4.82;;;3.05;;
47259;SDS011;32999;52.412;4.890;2023-04-15T08:55:44;4.75;;;3.05;;
47259;SDS011;32999;52.412;4.890;2023-04-15T09:00:46;3.92;;;2.55;;
47259;SDS011;32999;52.412;4.890;2023-04-15T09:05:48;3.85;;;2.80;;
47259;SDS011;32999;52.412;4.890;2023-04-15T09:10:52;4.85;;;3.00;;
47259;SDS011;32999;52.412;4.890;2023-04-15T09:15:54;5.20;;;2.80;;
47259;SDS011;32999;52.412;4.890;2023-04-15T09:21:03;9.95;;;2.80;;
47259;SDS011;32999;52.412;4.890;2023-04-15T09:26:09;4.25;;;2.80;;
47259;SDS011;32999;52.412;4.890;2023-04-15T09:31:10;6.20;;;2.25;;
47259;SDS011;32999;52.412;4.890;2023-04-15T09:36:12;3.85;;;2.60;;
47259;SDS011;32999;52.412;4.890;2023-04-15T09:41:17;5.40;;;2.63;;
47259;SDS011;32999;52.412;4.890;2023-04-15T09:46:19;4.53;;;2.00;;
47259;SDS011;32999;52.412;4.890;2023-04-15T09:51:31;3.00;;;1.92;;
47259;SDS011;32999;52.412;4.890;2023-04-15T09:56:36;3.65;;;2.05;;
47259;SDS011;32999;52.412;4.890;2023-04-15T10:01:41;2.53;;;1.75;;
47259;SDS011;32999;52.412;4.890;2023-04-15T10:06:43;5.78;;;2.50;;
47259;SDS011;32999;52.412;4.890;2023-04-15T10:11:47;3.47;;;2.30;;
47259;SDS011;32999;52.412;4.890;2023-04-15T10:16:50;5.00;;;2.30;;
47259;SDS011;32999;52.412;4.890;2023-04-15T10:21:57;4.30;;;2.33;;
47259;SDS011;32999;52.412;4.890;2023-04-15T10:27:01;3.95;;;2.70;;
47259;SDS011;32999;52.412;4.890;2023-04-15T10:32:04;4.88;;;2.40;;
47259;SDS011;32999;52.412;4.890;2023-04-15T10:37:09;4.30;;;2.63;;
47259;SDS011;32999;52.412;4.890;2023-04-15T10:42:42;3.42;;;1.70;;
47259;SDS011;32999;52.412;4.890;2023-04-15T10:47:50;3.85;;;2.00;;
47259;SDS011;32999;52.412;4.890;2023-04-15T10:52:54;1.88;;;1.48;;
47259;SDS011;32999;52.412;4.890;2023-04-15T10:57:58;3.08;;;1.60;;
47259;SDS011;32999;52.412;4.890;2023-04-15T11:03:04;4.50;;;1.52;;
47259;SDS011;32999;52.412;4.890;2023-04-15T11:08:07;4.38;;;1.33;;
47259;SDS011;32999;52.412;4.890;2023-04-15T11:13:15;3.28;;;1.50;;
47259;SDS011;32999;52.412;4.890;2023-04-15T11:18:18;2.50;;;1.27;;
47259;SDS011;32999;52.412;4.890;2023-04-15T11:23:26;4.32;;;1.80;;
47259;SDS011;32999;52.412;4.890;2023-04-15T11:28:31;2.45;;;1.70;;
47259;SDS011;32999;52.412;4.890;2023-04-15T11:33:33;4.07;;;1.48;;
47259;SDS011;32999;52.412;4.890;2023-04-15T11:38:41;5.85;;;1.70;;
47259;SDS011;32999;52.412;4.890;2023-04-15T11:43:44;1.48;;;1.20;;
47259;SDS011;32999;52.412;4.890;2023-04-15T11:48:46;4.82;;;1.33;;
47259;SDS011;32999;52.412;4.890;2023-04-15T11:53:48;2.88;;;1.70;;
47259;SDS011;32999;52.412;4.890;2023-04-15T11:58:53;6.78;;;3.70;;
47259;SDS011;32999;52.412;4.890;2023-04-15T12:03:56;1.92;;;1.35;;
47259;SDS011;32999;52.412;4.890;2023-04-15T12:09:00;3.55;;;1.50;;
47259;SDS011;32999;52.412;4.890;2023-04-15T12:14:07;3.75;;;1.10;;
47259;SDS011;32999;52.412;4.890;2023-04-15T12:19:11;3.10;;;1.75;;
47259;SDS011;32999;52.412;4.890;2023-04-15T12:24:13;1.73;;;1.07;;
47259;SDS011;32999;52.412;4.890;2023-04-15T12:29:17;1.90;;;1.10;;
47259;SDS011;32999;52.412;4.890;2023-04-15T12:34:24;2.95;;;1.13;;
47259;SDS011;32999;52.412;4.890;2023-04-15T12:39:29;4.10;;;2.40;;
47259;SDS011;32999;52.412;4.890;2023-04-15T12:44:33;3.25;;;1.90;;
47259;SDS011;32999;52.412;4.890;2023-04-15T12:49:35;2.70;;;1.27;;
47259;SDS011;32999;52.412;4.890;2023-04-15T12:54:38;3.17;;;1.27;;
47259;SDS011;32999;52.412;4.890;2023-04-15T12:59:41;2.88;;;1.60;;
47259;SDS011;32999;52.412;4.890;2023-04-15T13:04:43;3.08;;;1.02;;
47259;SDS011;32999;52.412;4.890;2023-04-15T13:09:44;3.30;;;1.00;;
47259;SDS011;32999;52.412;4.890;2023-04-15T13:14:48;1.40;;;0.80;;
47259;SDS011;32999;52.412;4.890;2023-04-15T13:19:49;1.42;;;1.00;;
47259;SDS011;32999;52.412;4.890;2023-04-15T13:24:51;2.90;;;0.90;;
47259;SDS011;32999;52.412;4.890;2023-04-15T13:29:54;7.43;;;1.48;;
47259;SDS011;32999;52.412;4.890;2023-04-15T13:34:56;2.78;;;0.68;;
47259;SDS011;32999;52.412;4.890;2023-04-15T13:39:58;2.13;;;0.90;;
47259;SDS011;32999;52.412;4.890;2023-04-15T13:45:01;4.68;;;0.80;;
47259;SDS011;32999;52.412;4.890;2023-04-15T13:50:03;2.80;;;0.93;;
47259;SDS011;32999;52.412;4.890;2023-04-15T13:55:06;3.17;;;0.60;;
47259;SDS011;32999;52.412;4.890;2023-04-15T14:00:10;5.32;;;1.15;;
47259;SDS011;32999;52.412;4.890;2023-04-15T14:05:12;5.53;;;0.85;;
47259;SDS011;32999;52.412;4.890;2023-04-15T14:10:14;3.60;;;0.82;;
47259;SDS011;32999;52.412;4.890;2023-04-15T14:15:17;8.38;;;1.25;;
47259;SDS011;32999;52.412;4.890;2023-04-15T14:20:20;4.40;;;0.90;;
47259;SDS011;32999;52.412;4.890;2023-04-15T14:25:22;5.32;;;1.00;;
47259;SDS011;32999;52.412;4.890;2023-04-15T14:30:25;2.60;;;0.70;;
47259;SDS011;32999;52.412;4.890;2023-04-15T14:35:27;2.88;;;1.00;;
47259;SDS011;32999;52.412;4.890;2023-04-15T14:40:28;8.10;;;1.75;;
47259;SDS011;32999;52.412;4.890;2023-04-15T14:45:31;3.97;;;0.85;;
47259;SDS011;32999;52.412;4.890;2023-04-15T14:50:33;3.38;;;1.08;;
47259;SDS011;32999;52.412;4.890;2023-04-15T14:55:35;3.67;;;1.25;;
47259;SDS011;32999;52.412;4.890;2023-04-15T15:00:38;5.15;;;1.08;;
47259;SDS011;32999;52.412;4.890;2023-04-15T15:05:43;4.47;;;0.82;;
47259;SDS011;32999;52.412;4.890;2023-04-15T15:10:46;4.32;;;1.25;;
47259;SDS011;32999;52.412;4.890;2023-04-15T15:15:50;7.22;;;1.00;;
47259;SDS011;32999;52.412;4.890;2023-04-15T15:20:51;5.70;;;1.10;;
47259;SDS011;32999;52.412;4.890;2023-04-15T15:25:53;3.75;;;1.02;;
47259;SDS011;32999;52.412;4.890;2023-04-15T15:30:56;8.15;;;1.13;;
47259;SDS011;32999;52.412;4.890;2023-04-15T15:35:58;2.90;;;0.95;;
47259;SDS011;32999;52.412;4.890;2023-04-15T15:41:00;4.63;;;1.10;;
47259;SDS011;32999;52.412;4.890;2023-04-15T15:46:03;5.82;;;1.25;;
47259;SDS011;32999;52.412;4.890;2023-04-15T15:51:05;3.78;;;0.75;;
47259;SDS011;32999;52.412;4.890;2023-04-15T15:56:07;2.33;;;0.77;;
47259;SDS011;32999;52.412;4.890;2023-04-15T16:01:13;4.55;;;0.85;;
47259;SDS011;32999;52.412;4.890;2023-04-15T16:06:15;5.20;;;0.77;;
47259;SDS011;32999;52.412;4.890;2023-04-15T16:11:16;4.25;;;0.82;;
47259;SDS011;32999;52.412;4.890;2023-04-15T16:16:20;6.32;;;1.75;;
47259;SDS011;32999;52.412;4.890;2023-04-15T16:21:22;6.20;;;1.40;;
47259;SDS011;32999;52.412;4.890;2023-04-15T16:26:26;7.40;;;0.88;;
47259;SDS011;32999;52.412;4.890;2023-04-15T16:31:29;4.47;;;0.85;;
47259;SDS011;32999;52.412;4.890;2023-04-15T16:36:32;5.97;;;1.20;;
47259;SDS011;32999;52.412;4.890;2023-04-15T16:41:34;9.52;;;1.23;;
47259;SDS011;32999;52.412;4.890;2023-04-15T16:46:38;11.25;;;1.08;;
47259;SDS011;32999;52.412;4.890;2023-04-15T16:51:40;6.80;;;1.00;;
47259;SDS011;32999;52.412;4.890;2023-04-15T16:56:42;13.70;;;1.63;;
47259;SDS011;32999;52.412;4.890;2023-04-15T17:01:45;9.13;;;0.60;;
47259;SDS011;32999;52.412;4.890;2023-04-15T17:06:46;7.05;;;1.00;;
47259;SDS011;32999;52.412;4.890;2023-04-15T17:11:48;7.40;;;0.90;;
47259;SDS011;32999;52.412;4.890;2023-04-15T17:16:51;4.22;;;0.63;;
47259;SDS011;32999;52.412;4.890;2023-04-15T17:21:54;6.57;;;1.50;;
47259;SDS011;32999;52.412;4.890;2023-04-15T17:26:57;6.70;;;1.23;;
47259;SDS011;32999;52.412;4.890;2023-04-15T17:32:00;7.00;;;0.95;;
47259;SDS011;32999;52.412;4.890;2023-04-15T17:37:02;6.33;;;0.87;;
47259;SDS011;32999;52.412;4.890;2023-04-15T17:42:04;6.30;;;1.02;;
47259;SDS011;32999;52.412;4.890;2023-04-15T17:47:07;3.25;;;0.60;;
47259;SDS011;32999;52.412;4.890;2023-04-15T17:52:15;5.35;;;0.75;;
47259;SDS011;32999;52.412;4.890;2023-04-15T17:57:17;7.30;;;1.00;;
47259;SDS011;32999;52.412;4.890;2023-04-15T18:02:21;4.20;;;0.68;;
47259;SDS011;32999;52.412;4.890;2023-04-15T18:07:23;7.55;;;0.82;;
47259;SDS011;32999;52.412;4.890;2023-04-15T18:12:24;11.02;;;0.95;;
47259;SDS011;32999;52.412;4.890;2023-04-15T18:17:27;2.50;;;0.93;;
47259;SDS011;32999;52.412;4.890;2023-04-15T18:22:29;9.60;;;0.95;;
47259;SDS011;32999;52.412;4.890;2023-04-15T18:27:32;8.68;;;0.80;;
47259;SDS011;32999;52.412;4.890;2023-04-15T18:32:39;6.95;;;2.08;;
47259;SDS011;32999;52.412;4.890;2023-04-15T18:37:41;4.75;;;0.73;;
47259;SDS011;32999;52.412;4.890;2023-04-15T18:47:55;5.18;;;1.30;;
47259;SDS011;32999;52.412;4.890;2023-04-15T18:52:58;4.88;;;0.85;;
47259;SDS011;32999;52.412;4.890;2023-04-15T18:58:01;9.88;;;1.23;;
47259;SDS011;32999;52.412;4.890;2023-04-15T19:03:04;4.60;;;0.88;;
47259;SDS011;32999;52.412;4.890;2023-04-15T19:08:06;6.35;;;0.80;;
47259;SDS011;32999;52.412;4.890;2023-04-15T19:13:08;3.38;;;0.38;;
47259;SDS011;32999;52.412;4.890;2023-04-15T19:18:12;7.35;;;1.25;;
47259;SDS011;32999;52.412;4.890;2023-04-15T19:23:17;6.00;;;1.20;;
47259;SDS011;32999;52.412;4.890;2023-04-15T19:28:19;7.77;;;0.70;;
47259;SDS011;32999;52.412;4.890;2023-04-15T19:44:37;3.55;;;0.75;;
47259;SDS011;32999;52.412;4.890;2023-04-15T19:50:21;3.35;;;1.35;;
47259;SDS011;32999;52.412;4.890;2023-04-15T19:55:26;4.30;;;1.05;;
47259;SDS011;32999;52.412;4.890;2023-04-15T20:00:28;3.55;;;1.00;;
47259;SDS011;32999;52.412;4.890;2023-04-15T20:05:30;3.42;;;0.70;;
47259;SDS011;32999;52.412;4.890;2023-04-15T20:10:34;4.75;;;1.00;;
47259;SDS011;32999;52.412;4.890;2023-04-15T20:15:36;5.43;;;0.97;;
47259;SDS011;32999;52.412;4.890;2023-04-15T20:20:38;5.57;;;1.40;;
47259;SDS011;32999;52.412;4.890;2023-04-15T20:25:41;3.60;;;0.50;;
47259;SDS011;32999;52.412;4.890;2023-04-15T20:30:44;11.15;;;0.98;;
47259;SDS011;32999;52.412;4.890;2023-04-15T20:35:47;4.00;;;0.90;;
47259;SDS011;32999;52.412;4.890;2023-04-15T20:40:50;3.80;;;0.88;;
47259;SDS011;32999;52.412;4.890;2023-04-15T20:45:51;4.45;;;1.00;;
47259;SDS011;32999;52.412;4.890;2023-04-15T20:50:56;7.82;;;1.73;;
47259;SDS011;32999;52.412;4.890;2023-04-15T20:55:59;6.60;;;0.95;;
47259;SDS011;32999;52.412;4.890;2023-04-15T21:01:00;4.90;;;0.80;;
47259;SDS011;32999;52.412;4.890;2023-04-15T21:06:02;13.15;;;2.33;;
47259;SDS011;32999;52.412;4.890;2023-04-15T21:11:05;7.57;;;1.10;;
47259;SDS011;32999;52.412;4.890;2023-04-15T21:16:07;6.72;;;1.10;;
47259;SDS011;32999;52.412;4.890;2023-04-15T21:21:09;7.00;;;1.08;;
47259;SDS011;32999;52.412;4.890;2023-04-15T21:26:12;5.93;;;1.08;;
47259;SDS011;32999;52.412;4.890;2023-04-15T21:31:14;9.50;;;1.10;;
47259;SDS011;32999;52.412;4.890;2023-04-15T21:36:16;4.32;;;1.20;;
47259;SDS011;32999;52.412;4.890;2023-04-15T21:41:19;9.25;;;1.40;;
47259;SDS011;32999;52.412;4.890;2023-04-15T21:46:21;11.55;;;1.98;;
47259;SDS011;32999;52.412;4.890;2023-04-15T21:51:23;4.28;;;0.77;;
47259;SDS011;32999;52.412;4.890;2023-04-15T21:56:26;5.95;;;1.00;;
47259;SDS011;32999;52.412;4.890;2023-04-15T22:01:28;5.88;;;1.27;;
47259;SDS011;32999;52.412;4.890;2023-04-15T22:06:29;6.50;;;1.15;;
47259;SDS011;32999;52.412;4.890;2023-04-15T22:11:33;14.98;;;2.50;;
47259;SDS011;32999;52.412;4.890;2023-04-15T22:16:35;9.88;;;2.78;;
47259;SDS011;32999;52.412;4.890;2023-04-15T22:21:36;9.23;;;1.33;;
47259;SDS011;32999;52.412;4.890;2023-04-15T22:26:39;7.60;;;1.38;;
47259;SDS011;32999;52.412;4.890;2023-04-15T22:31:41;20.42;;;4.22;;
47259;SDS011;32999;52.412;4.890;2023-04-15T22:36:43;9.52;;;1.85;;
47259;SDS011;32999;52.412;4.890;2023-04-15T22:41:46;9.70;;;1.88;;
47259;SDS011;32999;52.412;4.890;2023-04-15T22:46:49;7.22;;;1.55;;
47259;SDS011;32999;52.412;4.890;2023-04-15T22:51:50;8.30;;;1.23;;
47259;SDS011;32999;52.412;4.890;2023-04-15T22:56:53;9.75;;;1.30;;
47259;SDS011;32999;52.412;4.890;2023-04-15T23:01:55;8.05;;;1.52;;
47259;SDS011;32999;52.412;4.890;2023-04-15T23:06:58;8.88;;;1.17;;
47259;SDS011;32999;52.412;4.890;2023-04-15T23:12:01;9.05;;;1.10;;
47259;SDS011;32999;52.412;4.890;2023-04-15T23:17:03;12.77;;;3.00;;
47259;SDS011;32999;52.412;4.890;2023-04-15T23:22:05;11.32;;;2.33;;
47259;SDS011;32999;52.412;4.890;2023-04-15T23:27:10;12.25;;;1.50;;
47259;SDS011;32999;52.412;4.890;2023-04-15T23:32:12;8.13;;;2.28;;
47259;SDS011;32999;52.412;4.890;2023-04-15T23:37:15;7.80;;;1.90;;
47259;SDS011;32999;52.412;4.890;2023-04-15T23:42:19;8.25;;;2.25;;
47259;SDS011;32999;52.412;4.890;2023-04-15T23:47:21;14.00;;;2.67;;
47259;SDS011;32999;52.412;4.890;2023-04-15T23:52:23;13.88;;;2.88;;
47259;SDS011;32999;52.412;4.890;2023-04-15T23:57:26;11.85;;;3.00;;
